createdAt,value
2019-04-05T00:00:48.814Z,12.60
2019-04-05T00:03:17.353Z,12.60
2019-04-05T00:05:45.916Z,12.60
2019-04-05T00:08:14.381Z,12.50
2019-04-05T00:10:42.987Z,12.50
2019-04-05T00:13:11.665Z,12.60
2019-04-05T00:15:40.125Z,12.60
2019-04-05T00:18:08.669Z,12.60
2019-04-05T00:20:37.276Z,12.70
2019-04-05T00:23:06.044Z,12.70
2019-04-05T00:25:34.649Z,12.70
2019-04-05T00:28:03.237Z,12.70
2019-04-05T00:30:31.791Z,12.70
2019-04-05T00:33:00.367Z,12.70
2019-04-05T00:35:28.863Z,12.70
2019-04-05T00:37:57.328Z,12.70
2019-04-05T00:40:25.862Z,12.70
2019-04-05T00:42:54.435Z,12.80
2019-04-05T00:45:28.522Z,12.80
2019-04-05T00:47:53.303Z,12.80
2019-04-05T00:50:21.940Z,12.80
2019-04-05T00:52:50.402Z,12.90
2019-04-05T00:55:18.939Z,12.90
2019-04-05T00:57:49.476Z,12.80
2019-04-05T01:00:18.325Z,12.80
2019-04-05T01:02:46.868Z,12.90
2019-04-05T01:05:15.433Z,12.90
2019-04-05T01:07:43.976Z,12.80
2019-04-05T01:10:13.757Z,12.80
2019-04-05T01:12:42.399Z,12.70
2019-04-05T01:15:12.743Z,12.70
2019-04-05T01:17:41.590Z,12.70
2019-04-05T01:20:16.140Z,12.70
2019-04-05T01:22:46.210Z,12.70
2019-04-05T01:25:15.280Z,12.70
2019-04-05T01:27:44.019Z,12.70
2019-04-05T01:30:31.958Z,12.70
2019-04-05T01:33:00.643Z,12.70
2019-04-05T01:35:29.181Z,12.80
2019-04-05T01:37:57.716Z,12.70
2019-04-05T01:40:29.339Z,12.70
2019-04-05T01:42:58.185Z,12.70
2019-04-05T01:45:26.733Z,12.60
2019-04-05T01:47:55.372Z,12.60
2019-04-05T01:50:24.004Z,12.60
2019-04-05T01:52:53.205Z,12.60
2019-04-05T01:55:21.714Z,12.60
2019-04-05T01:57:50.177Z,12.50
2019-04-05T02:00:19.352Z,12.50
2019-04-05T02:02:48.001Z,12.50
2019-04-05T02:05:17.101Z,12.40
2019-04-05T02:07:45.907Z,12.50
2019-04-05T02:10:15.489Z,12.50
2019-04-05T02:12:43.315Z,12.40
2019-04-05T02:15:14.857Z,12.50
2019-04-05T02:17:43.368Z,12.40
2019-04-05T02:20:12.088Z,12.30
2019-04-05T02:22:40.768Z,12.30
2019-04-05T02:25:09.585Z,12.20
2019-04-05T02:27:38.912Z,12.30
2019-04-05T02:30:07.891Z,12.30
2019-04-05T02:32:36.477Z,12.30
2019-04-05T02:35:07.747Z,12.20
2019-04-05T02:37:36.921Z,12.30
2019-04-05T02:40:11.368Z,12.40
2019-04-05T02:42:40.777Z,12.40
2019-04-05T02:45:11.495Z,12.40
2019-04-05T02:47:43.138Z,12.40
2019-04-05T02:50:12.718Z,12.40
2019-04-05T02:52:44.494Z,12.40
2019-04-05T02:55:13.556Z,12.30
2019-04-05T02:57:44.702Z,12.30
2019-04-05T03:00:13.399Z,12.30
2019-04-05T03:02:42.948Z,12.30
2019-04-05T03:05:10.696Z,12.20
2019-04-05T03:07:39.163Z,12.30
2019-04-05T03:10:07.846Z,12.30
2019-04-05T03:12:37.037Z,12.30
2019-04-05T03:15:07.625Z,12.30
2019-04-05T03:17:37.769Z,12.20
2019-04-05T03:20:07.253Z,12.10
2019-04-05T03:22:36.961Z,12.00
2019-04-05T03:25:06.802Z,11.90
2019-04-05T03:27:37.905Z,11.90
2019-04-05T03:30:07.826Z,11.90
2019-04-05T03:32:36.539Z,11.80
2019-04-05T03:35:06.627Z,11.70
2019-04-05T03:37:35.154Z,11.60
2019-04-05T03:40:05.867Z,11.50
2019-04-05T03:42:35.039Z,11.50
2019-04-05T03:45:04.637Z,11.40
2019-04-05T03:47:33.247Z,11.40
2019-04-05T03:50:01.763Z,11.30
2019-04-05T03:52:30.358Z,11.30
2019-04-05T03:54:59.095Z,11.20
2019-04-05T03:57:27.710Z,11.10
2019-04-05T03:59:56.240Z,10.90
2019-04-05T04:02:24.805Z,11.10
2019-04-05T04:04:53.340Z,10.90
2019-04-05T04:07:21.949Z,10.90
2019-04-05T04:09:50.890Z,10.80
2019-04-05T04:12:19.562Z,10.90
2019-04-05T04:14:48.246Z,10.90
2019-04-05T04:17:17.210Z,12.30
2019-04-05T04:19:45.912Z,10.80
2019-04-05T04:22:20.303Z,10.80
2019-04-05T04:24:49.405Z,10.90
2019-04-05T04:27:18.480Z,10.90
2019-04-05T04:29:47.179Z,11.00
2019-04-05T04:32:16.039Z,11.00
2019-04-05T04:34:44.660Z,11.00
2019-04-05T04:37:13.346Z,11.10
2019-04-05T04:40:01.323Z,11.10
2019-04-05T04:42:30.005Z,11.10
2019-04-05T04:45:11.253Z,11.10
2019-04-05T04:47:29.337Z,11.10
2019-04-05T04:49:58.793Z,11.20
2019-04-05T04:52:31.354Z,11.20
2019-04-05T04:54:59.770Z,11.30
2019-04-05T04:57:28.479Z,11.40
2019-04-05T04:59:57.453Z,11.30
2019-04-05T05:02:26.204Z,11.30
2019-04-05T05:04:55.097Z,11.30
2019-04-05T05:07:23.699Z,11.30
2019-04-05T05:09:52.428Z,11.40
2019-04-05T05:12:21.022Z,11.40
2019-04-05T05:14:49.737Z,11.40
2019-04-05T05:17:19.394Z,11.50
2019-04-05T05:19:47.314Z,11.50
2019-04-05T05:22:16.188Z,11.50
2019-04-05T05:24:45.046Z,11.50
2019-04-05T05:27:13.744Z,11.60
2019-04-05T05:29:42.363Z,11.60
2019-04-05T05:32:11.083Z,11.70
2019-04-05T05:35:01.160Z,11.70
2019-04-05T05:37:19.101Z,11.80
2019-04-05T05:39:47.692Z,11.80
2019-04-05T05:42:16.317Z,11.80
2019-04-05T05:44:44.828Z,11.90
2019-04-05T05:47:13.465Z,11.90
2019-04-05T05:49:41.921Z,11.90
2019-04-05T05:52:10.749Z,12.00
2019-04-05T05:54:39.214Z,12.00
2019-04-05T05:57:07.753Z,12.20
2019-04-05T05:59:36.340Z,12.20
2019-04-05T06:02:07.281Z,12.30
2019-04-05T06:04:35.312Z,12.40
2019-04-05T06:07:03.953Z,12.60
2019-04-05T06:09:32.539Z,12.80
2019-04-05T06:12:01.155Z,13.00
2019-04-05T06:14:29.747Z,13.20
2019-04-05T06:16:58.260Z,13.60
2019-04-05T06:19:28.043Z,13.80
2019-04-05T06:21:56.545Z,13.90
2019-04-05T06:24:25.579Z,14.10
2019-04-05T06:26:54.123Z,14.00
2019-04-05T06:29:22.689Z,14.30
2019-04-05T06:31:51.358Z,14.40
2019-04-05T06:34:19.904Z,14.30
2019-04-05T06:36:51.321Z,14.40
2019-04-05T06:39:20.769Z,14.50
2019-04-05T06:41:48.711Z,14.30
2019-04-05T06:44:17.217Z,14.40
2019-04-05T06:46:45.838Z,14.40
2019-04-05T06:49:14.518Z,14.40
2019-04-05T06:51:43.386Z,14.60
2019-04-05T06:54:11.961Z,14.50
2019-04-05T06:56:40.442Z,14.50
2019-04-05T06:59:09.126Z,14.80
2019-04-05T07:01:37.676Z,15.00
2019-04-05T07:04:06.512Z,15.40
2019-04-05T07:06:35.078Z,15.70
2019-04-05T07:09:05.856Z,15.90
2019-04-05T07:11:34.404Z,16.10
2019-04-05T07:14:03.066Z,16.40
2019-04-05T07:16:31.775Z,16.50
2019-04-05T07:19:00.244Z,16.60
2019-04-05T07:21:28.828Z,16.40
2019-04-05T07:23:57.370Z,16.40
2019-04-05T07:26:25.934Z,16.80
2019-04-05T07:28:54.500Z,16.90
2019-04-05T07:31:22.959Z,16.90
2019-04-05T07:33:51.500Z,16.80
2019-04-05T07:36:20.176Z,16.70
2019-04-05T07:38:48.792Z,17.00
2019-04-05T07:41:17.257Z,16.90
2019-04-05T07:43:45.758Z,17.00
2019-04-05T07:46:14.294Z,16.80
2019-04-05T07:48:45.015Z,16.50
2019-04-05T07:51:13.106Z,16.40
2019-04-05T07:53:41.633Z,16.50
2019-04-05T07:56:10.173Z,16.40
2019-04-05T07:58:38.745Z,16.30
2019-04-05T08:01:07.517Z,16.40
2019-04-05T08:03:36.145Z,16.70
2019-04-05T08:06:05.760Z,16.90
2019-04-05T08:08:35.123Z,17.20
2019-04-05T08:11:04.151Z,17.50
2019-04-05T08:13:34.601Z,17.70
2019-04-05T08:16:03.194Z,17.90
2019-04-05T08:18:31.795Z,18.20
2019-04-05T08:21:00.711Z,18.50
2019-04-05T08:23:29.172Z,19.00
2019-04-05T08:25:57.703Z,19.40
2019-04-05T08:28:26.222Z,19.90
2019-04-05T08:30:54.710Z,20.30
2019-04-05T08:33:23.199Z,20.50
2019-04-05T08:35:51.907Z,20.90
2019-04-05T08:38:20.447Z,21.10
2019-04-05T08:40:49.409Z,21.40
2019-04-05T08:43:18.409Z,21.50
2019-04-05T08:45:46.910Z,21.60
2019-04-05T08:48:15.531Z,21.70
2019-04-05T08:50:44.158Z,21.30
2019-04-05T08:53:12.704Z,21.60
2019-04-05T08:55:45.192Z,21.80
2019-04-05T08:58:13.733Z,21.90
2019-04-05T09:00:42.326Z,22.10
2019-04-05T09:03:12.063Z,22.20
2019-04-05T09:05:40.803Z,22.30
2019-04-05T09:08:09.291Z,22.30
2019-04-05T09:10:37.834Z,22.50
2019-04-05T09:13:06.325Z,23.10
2019-04-05T09:15:38.981Z,23.00
2019-04-05T09:18:07.513Z,23.10
2019-04-05T09:20:36.053Z,22.60
2019-04-05T09:23:04.717Z,22.50
2019-04-05T09:25:33.199Z,22.70
2019-04-05T09:28:01.830Z,22.90
2019-04-05T09:30:30.428Z,22.80
2019-04-05T09:32:58.976Z,22.40
2019-04-05T09:35:27.695Z,22.10
2019-04-05T09:37:56.253Z,21.60
2019-04-05T09:40:24.968Z,21.10
2019-04-05T09:42:53.874Z,21.20
2019-04-05T09:45:22.405Z,21.30
2019-04-05T09:47:50.876Z,21.90
2019-04-05T09:50:19.977Z,22.40
2019-04-05T09:52:48.444Z,22.80
2019-04-05T09:55:16.916Z,22.80
2019-04-05T09:57:45.483Z,22.40
2019-04-05T10:00:20.308Z,22.10
2019-04-05T10:02:48.769Z,22.20
2019-04-05T10:05:17.277Z,22.30
2019-04-05T10:07:54.760Z,22.80
2019-04-05T10:10:16.517Z,23.10
2019-04-05T10:12:45.014Z,22.90
2019-04-05T10:15:15.112Z,22.20
2019-04-05T10:17:43.652Z,22.50
2019-04-05T10:20:12.994Z,22.50
2019-04-05T10:22:40.711Z,22.20
2019-04-05T10:25:09.502Z,22.00
2019-04-05T10:27:38.071Z,21.50
2019-04-05T10:30:13.590Z,21.30
2019-04-05T10:32:42.369Z,21.40
2019-04-05T10:35:11.144Z,21.20
2019-04-05T10:37:39.736Z,20.70
2019-04-05T10:40:08.602Z,20.50
2019-04-05T10:42:38.006Z,20.40
2019-04-05T10:45:07.067Z,20.60
2019-04-05T10:47:35.577Z,20.90
2019-04-05T10:50:07.450Z,21.30
2019-04-05T10:52:36.151Z,21.60
2019-04-05T10:55:06.078Z,22.50
2019-04-05T10:57:34.690Z,23.00
2019-04-05T11:00:04.079Z,23.80
2019-04-05T11:02:31.804Z,24.00
2019-04-05T11:05:00.264Z,23.90
2019-04-05T11:07:28.723Z,24.10
2019-04-05T11:09:57.223Z,23.70
2019-04-05T11:12:25.829Z,23.80
2019-04-05T11:14:54.431Z,24.20
2019-04-05T11:17:22.997Z,24.20
2019-04-05T11:19:51.528Z,24.20
2019-04-05T11:22:21.517Z,24.20
2019-04-05T11:24:53.295Z,24.20
2019-04-05T11:27:24.538Z,23.50
2019-04-05T11:32:39.834Z,22.30
2019-04-05T11:35:09.618Z,22.40
2019-04-05T11:37:39.734Z,22.50
2019-04-05T11:40:10.310Z,22.60
2019-04-05T11:42:39.083Z,22.60
2019-04-05T11:45:08.890Z,22.30
2019-04-05T11:47:38.877Z,22.30
2019-04-05T11:50:12.488Z,22.30
2019-04-05T11:52:41.026Z,22.20
2019-04-05T11:55:09.616Z,21.90
2019-04-05T11:57:40.931Z,21.70
2019-04-05T12:00:16.549Z,21.90
2019-04-05T12:02:52.747Z,22.00
2019-04-05T12:05:26.845Z,22.20
2019-04-05T12:07:56.293Z,22.40
2019-04-05T12:10:23.517Z,22.30
2019-04-05T12:12:55.642Z,22.30
2019-04-05T12:15:27.397Z,22.70
2019-04-05T12:17:56.435Z,22.80
2019-04-05T12:22:59.028Z,23.30
2019-04-05T12:25:33.675Z,23.50
2019-04-05T12:28:06.824Z,22.90
2019-04-05T12:30:34.385Z,22.50
2019-04-05T12:33:13.003Z,22.40
2019-04-05T12:35:37.469Z,22.00
2019-04-05T12:38:07.120Z,22.10
2019-04-05T12:40:36.023Z,22.00
2019-04-05T12:43:04.655Z,22.00
2019-04-05T12:45:35.862Z,21.90
2019-04-05T12:48:04.609Z,22.40
2019-04-05T12:50:33.240Z,23.00
2019-04-05T12:53:01.730Z,23.10
2019-04-05T12:55:30.190Z,22.90
2019-04-05T12:57:58.763Z,22.80
2019-04-05T13:00:27.264Z,22.60
2019-04-05T13:02:57.214Z,22.80
2019-04-05T13:05:28.348Z,23.60
2019-04-05T13:07:56.874Z,24.60
2019-04-05T13:10:29.979Z,26.10
2019-04-05T13:12:57.970Z,27.30
2019-04-05T13:15:26.727Z,27.30
2019-04-05T13:17:55.259Z,28.00
2019-04-05T13:20:25.553Z,27.80
2019-04-05T13:22:54.084Z,26.50
2019-04-05T13:25:23.047Z,25.90
2019-04-05T13:27:51.871Z,24.90
2019-04-05T13:30:20.468Z,25.00
2019-04-05T13:32:52.745Z,25.50
2019-04-05T13:35:19.764Z,26.00
2019-04-05T13:37:48.315Z,25.50
2019-04-05T13:40:17.245Z,25.00
2019-04-05T13:42:46.193Z,24.70
2019-04-05T13:45:34.105Z,23.90
2019-04-05T13:48:03.126Z,23.60
2019-04-05T13:50:33.210Z,22.70
2019-04-05T13:53:01.753Z,22.30
2019-04-05T13:55:30.433Z,22.30
2019-04-05T13:58:00.837Z,22.80
2019-04-05T14:02:58.194Z,23.00
2019-04-05T14:05:26.732Z,22.70
2019-04-05T14:08:09.107Z,22.60
2019-04-05T14:10:25.480Z,22.20
2019-04-05T14:12:54.025Z,22.20
2019-04-05T14:15:22.560Z,21.90
2019-04-05T14:17:51.071Z,21.70
2019-04-05T14:20:21.213Z,21.60
2019-04-05T14:22:51.440Z,21.50
2019-04-05T14:25:20.009Z,21.50
2019-04-05T14:27:48.474Z,21.50
2019-04-05T14:30:17.033Z,21.50
2019-04-05T14:32:45.606Z,21.30
2019-04-05T14:35:14.284Z,21.20
2019-04-05T14:37:42.827Z,21.10
2019-04-05T14:40:13.914Z,21.00
2019-04-05T14:42:42.608Z,20.90
2019-04-05T14:45:12.438Z,20.90
2019-04-05T14:47:41.627Z,21.00
2019-04-05T14:50:11.470Z,20.80
2019-04-05T14:52:40.264Z,20.80
2019-04-05T14:55:08.905Z,20.70
2019-04-05T14:57:37.474Z,20.70
2019-04-05T15:00:08.628Z,20.70
2019-04-05T15:02:37.281Z,20.50
2019-04-05T15:05:07.347Z,20.30
2019-04-05T15:07:37.863Z,20.00
2019-04-05T15:10:07.021Z,19.70
2019-04-05T15:12:34.791Z,19.50
2019-04-05T15:15:04.467Z,19.20
2019-04-05T15:17:33.003Z,19.00
2019-04-05T15:20:04.768Z,18.70
2019-04-05T15:22:31.744Z,18.60
2019-04-05T15:25:01.081Z,18.50
2019-04-05T15:27:29.679Z,18.40
2019-04-05T15:29:58.172Z,18.40
2019-04-05T15:32:28.050Z,18.40
2019-04-05T15:34:58.848Z,18.30
2019-04-05T15:37:26.771Z,18.40
2019-04-05T15:39:55.485Z,18.20
2019-04-05T15:42:23.936Z,18.10
2019-04-05T15:44:52.489Z,18.10
2019-04-05T15:47:23.225Z,18.20
2019-04-05T15:49:52.049Z,18.20
2019-04-05T15:52:21.399Z,18.40
2019-04-05T15:54:50.372Z,18.20
2019-04-05T15:57:18.921Z,18.30
2019-04-05T15:59:47.457Z,18.20
2019-04-05T16:02:35.369Z,18.30
2019-04-05T16:05:05.442Z,18.30
2019-04-05T16:07:34.639Z,18.50
2019-04-05T16:10:05.451Z,18.60
2019-04-05T16:12:34.051Z,18.50
2019-04-05T16:15:02.660Z,18.50
2019-04-05T16:17:31.194Z,18.50
2019-04-05T16:19:59.928Z,18.40
2019-04-05T16:22:31.542Z,18.30
2019-04-05T16:24:58.697Z,18.20
2019-04-05T16:27:27.246Z,18.20
2019-04-05T16:32:31.714Z,18.50
2019-04-05T16:35:00.257Z,18.40
2019-04-05T16:37:28.797Z,18.10
2019-04-05T16:39:57.369Z,18.00
2019-04-05T16:42:25.912Z,17.90
2019-04-05T16:44:54.480Z,17.90
2019-04-05T16:47:23.053Z,17.70
2019-04-05T16:49:51.705Z,17.60
2019-04-05T16:52:20.164Z,17.50
2019-04-05T16:54:48.676Z,17.50
2019-04-05T16:57:17.471Z,17.60
2019-04-05T16:59:45.950Z,17.50
2019-04-05T17:02:14.515Z,17.20
2019-04-05T17:04:43.157Z,17.10
2019-04-05T17:07:11.766Z,17.00
2019-04-05T17:09:40.267Z,16.80
2019-04-05T17:12:08.882Z,16.90
2019-04-05T17:14:37.484Z,16.80
2019-04-05T17:17:06.056Z,16.80
2019-04-05T17:19:34.689Z,16.80
2019-04-05T17:22:03.792Z,16.60
2019-04-05T17:24:32.360Z,16.60
2019-04-05T17:27:00.893Z,16.70
2019-04-05T17:29:29.442Z,16.50
2019-04-05T17:31:58.009Z,16.40
2019-04-05T17:34:26.553Z,16.40
2019-04-05T17:36:55.110Z,16.40
2019-04-05T17:39:23.678Z,16.30
2019-04-05T17:41:52.148Z,16.20
2019-04-05T17:44:20.613Z,16.10
2019-04-05T17:46:49.128Z,16.00
2019-04-05T17:49:17.749Z,16.10
2019-04-05T17:51:58.525Z,16.20
2019-04-05T17:54:27.200Z,16.20
2019-04-05T17:56:55.861Z,15.90
2019-04-05T17:59:25.240Z,15.80
2019-04-05T18:01:53.844Z,15.90
2019-04-05T18:04:22.529Z,15.90
2019-04-05T18:07:02.543Z,15.90
2019-04-05T18:09:32.744Z,15.70
2019-04-05T18:12:01.277Z,15.60
2019-04-05T18:14:29.794Z,15.50
2019-04-05T18:16:58.321Z,15.60
2019-04-05T18:19:27.361Z,15.50
2019-04-05T18:21:55.828Z,15.30
2019-04-05T18:24:29.038Z,15.20
2019-04-05T18:26:57.898Z,15.40
2019-04-05T18:29:26.513Z,15.30
2019-04-05T18:31:57.157Z,15.20
2019-04-05T18:34:30.982Z,15.00
2019-04-05T18:36:59.480Z,14.80
2019-04-05T18:39:29.331Z,14.60
2019-04-05T18:41:57.867Z,14.50
2019-04-05T18:44:26.369Z,14.50
2019-04-05T18:46:54.921Z,14.40
2019-04-05T18:49:23.463Z,14.50
2019-04-05T18:51:53.600Z,14.40
2019-04-05T18:54:22.152Z,14.20
2019-04-05T18:56:50.693Z,14.10
2019-04-05T18:59:19.271Z,14.20
2019-04-05T19:01:48.918Z,14.30
2019-04-05T19:04:16.676Z,14.30
2019-04-05T19:06:45.603Z,14.30
2019-04-05T19:09:14.149Z,14.10
2019-04-05T19:11:43.037Z,14.10
2019-04-05T19:14:11.652Z,14.00
2019-04-05T19:16:41.023Z,14.10
2019-04-05T19:19:09.592Z,14.00
2019-04-05T19:21:38.237Z,13.90
2019-04-05T19:24:06.841Z,13.90
2019-04-05T19:26:36.492Z,13.90
2019-04-05T19:29:05.387Z,14.10
2019-04-05T19:49:08.429Z,14.00
2019-04-05T19:51:37.033Z,14.10
2019-04-05T19:54:09.265Z,14.00
2019-04-05T19:56:37.734Z,13.90
2019-04-05T19:59:06.237Z,14.00
2019-04-05T20:01:34.701Z,14.10
2019-04-05T20:04:05.382Z,14.10
2019-04-05T20:06:34.245Z,14.00
2019-04-05T20:09:02.804Z,14.00
2019-04-05T20:11:31.272Z,14.00
2019-04-05T20:14:01.982Z,14.00
2019-04-05T20:16:31.054Z,14.00
2019-04-05T20:18:59.593Z,14.00
2019-04-05T20:21:28.168Z,14.00
2019-04-05T20:23:56.647Z,14.00
2019-04-05T20:26:25.185Z,14.00
2019-04-05T20:28:53.672Z,14.00
2019-04-05T20:31:22.139Z,13.90
2019-04-05T20:33:50.606Z,13.90
2019-04-05T20:36:19.111Z,13.90
2019-04-05T20:38:47.863Z,13.90
2019-04-05T20:41:16.510Z,14.00
2019-04-05T20:43:45.064Z,14.00
2019-04-05T20:46:13.549Z,14.00
2019-04-05T20:48:42.087Z,13.90
2019-04-05T20:51:10.702Z,13.90
2019-04-05T20:53:39.236Z,13.80
2019-04-05T20:56:08.204Z,13.80
2019-04-05T20:58:36.812Z,13.80
2019-04-05T21:01:05.281Z,13.80
2019-04-05T21:03:33.735Z,13.80
2019-04-05T21:06:02.387Z,13.90
2019-04-05T21:08:30.865Z,13.80
2019-04-05T21:10:59.396Z,13.80
2019-04-05T21:13:27.925Z,13.70
2019-04-05T21:15:56.389Z,13.80
2019-04-05T21:18:24.870Z,13.70
2019-04-05T21:20:53.433Z,13.60
2019-04-05T21:23:21.988Z,13.60
2019-04-05T21:25:50.533Z,13.50
2019-04-05T21:28:19.030Z,13.60
2019-04-05T21:30:47.498Z,13.50
2019-04-05T21:33:15.959Z,13.50
2019-04-05T21:35:45.950Z,13.50
2019-04-05T21:38:14.896Z,13.40
2019-04-05T21:40:43.479Z,13.50
2019-04-05T21:43:12.086Z,13.40
2019-04-05T21:45:40.624Z,13.30
2019-04-05T21:48:09.157Z,13.30
2019-04-05T21:50:37.737Z,13.30
2019-04-05T21:53:06.196Z,13.20
2019-04-05T21:55:34.661Z,13.10
2019-04-05T21:58:03.168Z,13.10
2019-04-05T22:00:35.175Z,13.10
2019-04-05T22:03:03.713Z,13.00
2019-04-05T22:05:32.219Z,13.00
2019-04-05T22:08:01.076Z,12.90
2019-04-05T22:10:29.616Z,12.90
2019-04-05T22:12:58.115Z,12.90
2019-04-05T22:15:26.584Z,12.90
2019-04-05T22:17:55.048Z,12.80
2019-04-05T22:20:23.608Z,12.80
2019-04-05T22:22:52.076Z,12.80
2019-04-05T22:25:20.654Z,12.70
2019-04-05T22:27:49.221Z,12.70
2019-04-05T22:30:17.848Z,12.60
2019-04-05T22:32:46.323Z,12.60
2019-04-05T22:35:14.916Z,12.50
2019-04-05T22:37:43.432Z,12.50
2019-04-05T22:40:12.052Z,12.60
2019-04-05T22:42:40.547Z,12.50
2019-04-05T22:45:09.267Z,12.50
2019-04-05T22:47:37.811Z,12.40
2019-04-05T22:50:07.411Z,12.50
2019-04-05T22:52:35.883Z,12.50
2019-04-05T22:55:10.901Z,12.50
2019-04-05T22:57:35.904Z,12.40
2019-04-05T23:00:07.212Z,12.40
2019-04-05T23:02:35.744Z,12.30
2019-04-05T23:05:05.784Z,12.20
2019-04-05T23:07:34.320Z,12.20
2019-04-05T23:10:04.886Z,12.10
2019-04-05T23:12:33.524Z,12.10
2019-04-05T23:15:01.993Z,12.10
2019-04-05T23:17:30.455Z,12.10
2019-04-05T23:19:58.979Z,12.00
2019-04-05T23:22:27.500Z,12.00
2019-04-05T23:24:55.969Z,11.80
2019-04-05T23:27:24.464Z,11.80
2019-04-05T23:29:52.929Z,11.70
2019-04-05T23:32:21.473Z,11.70
2019-04-05T23:34:49.970Z,11.60
2019-04-05T23:37:18.437Z,11.60
2019-04-05T23:39:46.904Z,11.50
2019-04-05T23:42:15.412Z,11.40
2019-04-05T23:44:43.880Z,11.30
2019-04-05T23:47:12.431Z,11.40
2019-04-05T23:49:40.938Z,11.40
2019-04-05T23:52:09.418Z,11.40
2019-04-05T23:54:37.989Z,11.40
2019-04-05T23:57:06.529Z,11.30
2019-04-05T23:59:35.003Z,11.20
